Hebei Shijiazhuang — VRIS2 — position and weather

sailwx.info

Track history (hours):
 
Tides and Currents Weather Stations Pressure Air Temp Water Temp Dewpoint Dewpoint Depression Visibility Wind Speed Wind Dir Waves Ship Positions

Hebei Shijiazhuang

Last reported at 2015-Aug-25 09:30 UTC. Time now 2015-Aug-30 11:49 UTC.
Position S 20°19' E 118°34'.

Length 235 m.

Type: Cargo ship. MMSI: 477899000.

Date/timePositionNaut miles runAvg speedWind from/ knotsBaromVisibWave heightAir tempDewpointWater temp
2015-Aug-25 09:30S 20°19' E 118°34'10 0.6
2015-Aug-24 17:26S 20°09' E 118°34'3 1.3
2015-Aug-24 15:22S 20°06' E 118°36'0 0.0
2015-Aug-24 13:04S 20°06' E 118°36'0 0.2
2015-Aug-24 12:16S 20°07' E 118°35'0 0.0
2015-Aug-24 11:10S 20°07' E 118°35'0 0.1
2015-Aug-24 10:28S 20°07' E 118°35'0 0.0
2015-Aug-24 09:28S 20°07' E 118°35'0 0.0
2015-Aug-24 07:22S 20°07' E 118°35'0 0.1
2015-Aug-24 06:22S 20°07' E 118°35'0 0.0
2015-Aug-23 16:04S 20°06' E 118°36'0 0.0
2015-Aug-23 14:16S 20°06' E 118°36'0 0.1
2015-Aug-23 12:10S 20°07' E 118°35'0 0.0
2015-Aug-23 09:28S 20°07' E 118°35'0 0.0
2015-Aug-22 18:28S 20°06' E 118°36'0 0.0
2015-Aug-22 17:28S 20°06' E 118°36'0 0.0
2015-Aug-22 13:28S 20°06' E 118°36'0 0.1
2015-Aug-22 12:16S 20°06' E 118°36'0 0.1
2015-Aug-22 11:28S 20°06' E 118°36'0 0.0
2015-Aug-22 10:22S 20°06' E 118°36'0 0.0
2015-Aug-21 10:28S 20°06' E 118°36'0 0.0
2015-Aug-21 07:22S 20°06' E 118°36'0 0.0
2015-Aug-20 18:07S 20°06' E 118°36'0 0.0
2015-Aug-20 17:25S 20°06' E 118°36'0 0.0
2015-Aug-20 16:25S 20°06' E 118°36'0 0.0
2015-Aug-20 15:25S 20°06' E 118°36'0 0.0
2015-Aug-20 10:25S 20°06' E 118°36'0 0.0
2015-Aug-20 08:31S 20°06' E 118°36'1 0.1
2015-Aug-19 22:31S 20°06' E 118°35'6 5.9
2015-Aug-19 21:33S 20°01' E 118°31'1111.3
2015-Aug-19 20:32S 19°52' E 118°25'7 7.2
2015-Aug-19 19:33S 19°44' E 118°24'1313.0
2015-Aug-19 18:33S 19°32' E 118°21'1313.5
2015-Aug-19 17:34S 19°19' E 118°18'1414.1
2015-Aug-19 16:32S 19°05' E 118°15'1514.1
2015-Aug-19 15:28S 18°50' E 118°11'1414.7
2015-Aug-19 14:33S 18°37' E 118°07'1514.5
2015-Aug-19 13:33S 18°23' E 118°04'9813.6
2015-Aug-19 06:21S 16°48' E 117°40'7014.0
2015-Aug-19 01:23S 15°40' E 117°23'1113.7
2015-Aug-19 00:33S 15°29' E 117°20'1613.2
2015-Aug-18 23:21S 15°13' E 117°16'  
Track history (hours):
 
Tides and Currents Weather Stations Pressure Air Temp Water Temp Dewpoint Dewpoint Depression Visibility Wind Speed Wind Dir Waves Ship Positions

Hebei Shijiazhuang

Last reported at 2015-Aug-25 09:30 UTC. Time now 2015-Aug-30 11:49 UTC.
Position S 20°19' E 118°34'.

Length 235 m.

Type: Cargo ship. MMSI: 477899000.

Date/timePositionNaut miles runAvg speedWind from/ knotsBaromVisibWave heightAir tempDewpointWater temp
2015-Aug-25 09:30S 20°19' E 118°34'10 0.6
2015-Aug-24 17:26S 20°09' E 118°34'3 1.3
2015-Aug-24 15:22S 20°06' E 118°36'0 0.0
2015-Aug-24 13:04S 20°06' E 118°36'0 0.2
2015-Aug-24 12:16S 20°07' E 118°35'0 0.0
2015-Aug-24 11:10S 20°07' E 118°35'0 0.1
2015-Aug-24 10:28S 20°07' E 118°35'0 0.0
2015-Aug-24 09:28S 20°07' E 118°35'0 0.0
2015-Aug-24 07:22S 20°07' E 118°35'0 0.1
2015-Aug-24 06:22S 20°07' E 118°35'0 0.0
2015-Aug-23 16:04S 20°06' E 118°36'0 0.0
2015-Aug-23 14:16S 20°06' E 118°36'0 0.1
2015-Aug-23 12:10S 20°07' E 118°35'0 0.0
2015-Aug-23 09:28S 20°07' E 118°35'0 0.0
2015-Aug-22 18:28S 20°06' E 118°36'0 0.0
2015-Aug-22 17:28S 20°06' E 118°36'0 0.0
2015-Aug-22 13:28S 20°06' E 118°36'0 0.1
2015-Aug-22 12:16S 20°06' E 118°36'0 0.1
2015-Aug-22 11:28S 20°06' E 118°36'0 0.0
2015-Aug-22 10:22S 20°06' E 118°36'0 0.0
2015-Aug-21 10:28S 20°06' E 118°36'0 0.0
2015-Aug-21 07:22S 20°06' E 118°36'0 0.0
2015-Aug-20 18:07S 20°06' E 118°36'0 0.0
2015-Aug-20 17:25S 20°06' E 118°36'0 0.0
2015-Aug-20 16:25S 20°06' E 118°36'0 0.0
2015-Aug-20 15:25S 20°06' E 118°36'0 0.0
2015-Aug-20 10:25S 20°06' E 118°36'0 0.0
2015-Aug-20 08:31S 20°06' E 118°36'1 0.1
2015-Aug-19 22:31S 20°06' E 118°35'6 5.9
2015-Aug-19 21:33S 20°01' E 118°31'1111.3
2015-Aug-19 20:32S 19°52' E 118°25'7 7.2
2015-Aug-19 19:33S 19°44' E 118°24'1313.0
2015-Aug-19 18:33S 19°32' E 118°21'1313.5
2015-Aug-19 17:34S 19°19' E 118°18'1414.1
2015-Aug-19 16:32S 19°05' E 118°15'1514.1
2015-Aug-19 15:28S 18°50' E 118°11'1414.7
2015-Aug-19 14:33S 18°37' E 118°07'1514.5
2015-Aug-19 13:33S 18°23' E 118°04'9813.6
2015-Aug-19 06:21S 16°48' E 117°40'7014.0
2015-Aug-19 01:23S 15°40' E 117°23'1113.7
2015-Aug-19 00:33S 15°29' E 117°20'1613.2
2015-Aug-18 23:21S 15°13' E 117°16'  

Dump ship's entire track history